createdAt,value
2023-05-10T00:00:16.908Z,16.87
2023-05-10T00:02:46.661Z,16.90
2023-05-10T00:05:14.561Z,16.91
2023-05-10T00:07:45.624Z,16.88
2023-05-10T00:10:14.023Z,16.87
2023-05-10T00:12:43.371Z,16.89
2023-05-10T00:15:11.779Z,16.95
2023-05-10T00:17:40.461Z,16.97
2023-05-10T00:20:11.820Z,16.99
2023-05-10T00:22:39.763Z,16.97
2023-05-10T00:25:10.197Z,16.94
2023-05-10T00:27:38.157Z,16.88
2023-05-10T00:30:08.405Z,16.82
2023-05-10T00:32:36.878Z,16.71
2023-05-10T00:35:05.988Z,16.66
2023-05-10T00:37:35.785Z,16.63
2023-05-10T00:40:04.151Z,16.47
2023-05-10T00:42:32.072Z,16.41
2023-05-10T00:44:59.858Z,16.44
2023-05-10T00:47:28.670Z,16.19
2023-05-10T00:49:58.289Z,15.99
2023-05-10T00:52:27.659Z,15.80
2023-05-10T00:54:58.052Z,15.68
2023-05-10T00:57:26.052Z,15.52
2023-05-10T00:59:54.395Z,15.57
2023-05-10T01:02:22.452Z,15.54
2023-05-10T01:04:51.097Z,15.52
2023-05-10T01:07:19.294Z,15.56
2023-05-10T01:09:47.634Z,15.56
2023-05-10T01:12:16.988Z,15.48
2023-05-10T01:14:47.517Z,15.40
2023-05-10T01:17:17.146Z,15.55
2023-05-10T01:19:45.278Z,15.41
2023-05-10T01:22:54.169Z,15.39
2023-05-10T01:25:50.501Z,15.28
2023-05-10T01:28:40.092Z,15.17
2023-05-10T01:31:31.774Z,14.82
2023-05-10T01:34:09.949Z,14.77
2023-05-10T01:36:48.975Z,14.70
2023-05-10T01:39:25.486Z,14.50
2023-05-10T01:42:04.380Z,14.48
2023-05-10T01:44:39.892Z,14.44
2023-05-10T01:47:13.227Z,14.39
2023-05-10T01:49:50.418Z,14.46
2023-05-10T01:52:23.280Z,14.45
2023-05-10T01:55:00.460Z,14.56
2023-05-10T01:57:36.199Z,14.43
2023-05-10T02:00:07.371Z,14.40
2023-05-10T02:02:46.894Z,14.50
2023-05-10T02:05:19.304Z,14.47
2023-05-10T02:07:48.608Z,14.35
2023-05-10T02:10:18.641Z,14.44
2023-05-10T02:12:52.024Z,14.45
2023-05-10T02:15:25.631Z,14.56
2023-05-10T02:17:56.820Z,14.59
2023-05-10T02:20:27.842Z,14.46
2023-05-10T02:22:58.677Z,14.50
2023-05-10T02:25:29.032Z,14.58
2023-05-10T02:28:01.416Z,14.52
2023-05-10T02:30:32.158Z,14.49
2023-05-10T02:33:01.603Z,14.45
2023-05-10T02:35:34.343Z,14.48
2023-05-10T02:38:05.814Z,14.60
2023-05-10T02:40:35.551Z,14.69
2023-05-10T02:43:06.576Z,14.69
2023-05-10T02:45:37.522Z,14.59
2023-05-10T02:48:06.622Z,14.60
2023-05-10T02:50:40.431Z,14.67
2023-05-10T02:53:32.254Z,14.54
2023-05-10T02:56:08.150Z,14.64
2023-05-10T02:58:36.525Z,14.41
2023-05-10T03:01:05.021Z,14.33
2023-05-10T03:03:33.052Z,14.41
2023-05-10T03:06:02.685Z,14.25
2023-05-10T03:08:31.233Z,14.40
2023-05-10T03:11:38.321Z,14.32
2023-05-10T03:14:22.233Z,14.43
2023-05-10T03:17:05.248Z,14.44
2023-05-10T03:19:55.556Z,14.38
2023-05-10T03:22:33.138Z,14.43
2023-05-10T03:25:07.038Z,14.45
2023-05-10T03:27:39.898Z,14.49
2023-05-10T03:30:11.361Z,14.51
2023-05-10T03:32:40.422Z,14.50
2023-05-10T03:35:09.593Z,14.36
2023-05-10T03:37:40.533Z,14.41
2023-05-10T03:40:11.105Z,14.41
2023-05-10T03:42:41.520Z,14.41
2023-05-10T03:45:11.002Z,14.41
2023-05-10T03:47:39.008Z,14.37
2023-05-10T03:50:09.026Z,14.38
2023-05-10T03:52:37.401Z,14.39
2023-05-10T03:55:08.789Z,14.33
2023-05-10T03:57:37.046Z,14.52
2023-05-10T04:00:06.437Z,14.45
2023-05-10T04:02:43.218Z,14.58
2023-05-10T04:05:18.754Z,14.45
2023-05-10T04:07:48.269Z,14.30
2023-05-10T04:10:18.708Z,14.38
2023-05-10T04:12:47.527Z,14.42
2023-05-10T04:15:15.477Z,14.43
2023-05-10T04:17:43.610Z,14.49
2023-05-10T04:20:12.950Z,14.59
2023-05-10T04:22:41.971Z,14.59
2023-05-10T04:25:10.513Z,14.60
2023-05-10T04:27:39.852Z,14.48
2023-05-10T04:30:09.306Z,14.61
2023-05-10T04:32:38.713Z,14.62
2023-05-10T04:35:08.173Z,14.63
2023-05-10T04:37:37.620Z,14.64
2023-05-10T04:40:07.512Z,14.69
2023-05-10T04:42:35.424Z,14.66
2023-05-10T04:45:06.146Z,14.64
2023-05-10T04:47:34.078Z,14.58
2023-05-10T04:50:02.035Z,14.67
2023-05-10T04:52:30.157Z,14.65
2023-05-10T04:54:57.945Z,14.76
2023-05-10T04:57:25.814Z,14.77
2023-05-10T04:59:53.795Z,14.84
2023-05-10T05:02:23.195Z,14.74
2023-05-10T05:04:51.010Z,14.84
2023-05-10T05:07:18.866Z,14.92
2023-05-10T05:09:46.735Z,15.00
2023-05-10T05:12:15.304Z,15.07
2023-05-10T05:14:44.704Z,15.16
2023-05-10T05:17:12.653Z,15.01
2023-05-10T05:19:41.722Z,15.16
2023-05-10T05:22:09.684Z,15.27
2023-05-10T05:24:40.862Z,15.27
2023-05-10T05:27:08.799Z,15.22
2023-05-10T05:29:36.634Z,15.33
2023-05-10T05:32:07.512Z,15.18
2023-05-10T05:34:35.528Z,15.17
2023-05-10T05:37:04.980Z,15.26
2023-05-10T05:39:34.541Z,15.23
2023-05-10T05:42:02.323Z,15.24
2023-05-10T05:44:32.698Z,15.19
2023-05-10T05:47:00.530Z,15.25
2023-05-10T05:49:28.413Z,15.43
2023-05-10T05:52:04.137Z,15.50
2023-05-10T05:54:36.775Z,15.64
2023-05-10T05:57:06.595Z,15.75
2023-05-10T05:59:34.652Z,15.72
2023-05-10T06:02:02.630Z,15.63
2023-05-10T06:04:30.734Z,15.57
2023-05-10T06:06:58.823Z,15.71
2023-05-10T06:09:27.326Z,15.83
2023-05-10T06:11:58.443Z,15.91
2023-05-10T06:14:26.512Z,15.83
2023-05-10T06:16:54.570Z,15.90
2023-05-10T06:19:24.077Z,16.05
2023-05-10T06:21:53.822Z,16.12
2023-05-10T06:24:22.878Z,16.21
2023-05-10T06:26:51.676Z,16.19
2023-05-10T06:29:21.171Z,16.09
2023-05-10T06:31:49.341Z,16.20
2023-05-10T06:34:17.373Z,16.24
2023-05-10T06:36:46.249Z,16.26
2023-05-10T06:39:14.224Z,16.29
2023-05-10T06:41:43.772Z,16.07
2023-05-10T06:44:11.742Z,16.07
2023-05-10T06:49:10.946Z,16.23
2023-05-10T06:51:38.743Z,16.14
2023-05-10T06:54:06.911Z,16.10
2023-05-10T06:56:35.647Z,16.18
2023-05-10T06:59:03.928Z,16.24
2023-05-10T07:01:33.288Z,16.42
2023-05-10T07:04:02.547Z,16.52
2023-05-10T07:06:33.948Z,16.69
2023-05-10T07:09:02.243Z,16.79
2023-05-10T07:11:30.026Z,16.89
2023-05-10T07:13:57.992Z,16.78
2023-05-10T07:16:25.954Z,16.76
2023-05-10T07:18:54.475Z,16.88
2023-05-10T07:21:29.613Z,16.76
2023-05-10T07:23:59.420Z,16.93
2023-05-10T07:26:33.157Z,16.98
2023-05-10T07:29:11.243Z,17.11
2023-05-10T07:31:39.814Z,17.37
2023-05-10T07:34:08.184Z,17.29
2023-05-10T07:36:39.829Z,17.33
2023-05-10T07:39:08.618Z,17.17
2023-05-10T07:41:38.645Z,17.15
2023-05-10T07:44:07.265Z,16.94
2023-05-10T07:46:35.146Z,16.88
2023-05-10T07:49:03.135Z,17.03
2023-05-10T07:51:30.968Z,16.96
2023-05-10T07:54:00.302Z,16.97
2023-05-10T07:56:30.613Z,17.21
2023-05-10T07:58:59.233Z,17.35
2023-05-10T08:01:30.827Z,17.34
2023-05-10T08:03:58.876Z,17.59
2023-05-10T08:06:31.122Z,17.86
2023-05-10T08:09:00.913Z,17.64
2023-05-10T08:11:28.839Z,17.54
2023-05-10T08:13:56.863Z,17.72
2023-05-10T08:16:25.559Z,17.86
2023-05-10T08:18:56.252Z,17.73
2023-05-10T08:21:24.649Z,17.93
2023-05-10T08:23:52.732Z,18.08
2023-05-10T08:26:22.684Z,17.94
2023-05-10T08:28:50.887Z,18.00
2023-05-10T08:31:19.273Z,18.38
2023-05-10T08:33:47.386Z,18.28
2023-05-10T08:36:20.674Z,18.20
2023-05-10T08:38:52.092Z,18.13
2023-05-10T08:41:24.964Z,18.17
2023-05-10T08:43:54.586Z,18.37
2023-05-10T08:46:23.889Z,18.33
2023-05-10T08:48:53.258Z,18.34
2023-05-10T08:51:28.804Z,18.21
2023-05-10T08:53:57.294Z,18.24
2023-05-10T08:56:27.170Z,18.08
2023-05-10T08:58:55.994Z,18.00
2023-05-10T09:01:26.426Z,18.24
2023-05-10T09:03:54.804Z,18.44
2023-05-10T09:06:23.432Z,18.58
2023-05-10T09:08:51.822Z,18.63
2023-05-10T09:11:21.986Z,18.66
2023-05-10T09:13:53.465Z,19.01
2023-05-10T09:16:22.547Z,19.05
2023-05-10T09:18:51.144Z,18.97
2023-05-10T09:21:21.707Z,18.83
2023-05-10T09:23:51.146Z,18.95
2023-05-10T09:26:24.015Z,18.96
2023-05-10T09:28:58.187Z,19.00
2023-05-10T09:31:46.180Z,19.09
2023-05-10T09:34:18.905Z,19.08
2023-05-10T09:36:55.857Z,19.47
2023-05-10T09:39:33.012Z,19.64
2023-05-10T09:42:04.898Z,19.49
2023-05-10T09:44:35.970Z,19.91
2023-05-10T09:47:04.805Z,19.77
2023-05-10T09:49:34.279Z,19.87
2023-05-10T09:52:04.189Z,19.72
2023-05-10T09:54:33.030Z,19.75
2023-05-10T09:57:01.935Z,19.56
2023-05-10T09:59:31.154Z,19.48
2023-05-10T10:02:01.575Z,19.48
2023-05-10T10:04:31.307Z,19.54
2023-05-10T10:07:01.664Z,19.49
2023-05-10T10:09:29.789Z,19.37
2023-05-10T10:11:58.606Z,19.23
2023-05-10T10:14:27.041Z,19.46
2023-05-10T10:17:07.397Z,18.92
2023-05-10T10:19:38.305Z,19.06
2023-05-10T10:22:09.291Z,18.98
2023-05-10T10:24:37.646Z,19.36
2023-05-10T10:27:24.575Z,19.58
2023-05-10T10:30:10.398Z,20.14
2023-05-10T10:33:16.533Z,20.28
2023-05-10T10:36:00.213Z,19.88
2023-05-10T10:38:40.208Z,19.99
2023-05-10T10:41:28.761Z,19.92
2023-05-10T10:44:39.229Z,20.28
2023-05-10T10:47:25.406Z,20.43
2023-05-10T10:50:05.724Z,20.56
2023-05-10T10:52:37.975Z,20.61
2023-05-10T10:55:11.660Z,20.93
2023-05-10T10:57:49.631Z,21.17
2023-05-10T11:00:27.705Z,20.90
2023-05-10T11:03:00.454Z,20.73
2023-05-10T11:05:42.697Z,21.15
2023-05-10T11:08:17.432Z,20.55
2023-05-10T11:11:08.232Z,19.92
2023-05-10T11:13:41.543Z,19.64
2023-05-10T11:16:17.712Z,18.97
2023-05-10T11:19:03.094Z,18.98
2023-05-10T11:21:32.530Z,19.16
2023-05-10T11:24:16.878Z,19.88
2023-05-10T11:26:45.711Z,20.52
2023-05-10T11:29:22.244Z,20.62
2023-05-10T11:31:52.787Z,20.56
2023-05-10T11:34:27.757Z,20.37
2023-05-10T11:36:57.419Z,20.42
2023-05-10T11:39:31.356Z,20.16
2023-05-10T11:42:01.564Z,20.34
2023-05-10T11:44:31.512Z,20.39
2023-05-10T11:47:00.697Z,20.66
2023-05-10T11:49:29.368Z,20.79
2023-05-10T11:52:06.445Z,21.27
2023-05-10T11:54:36.335Z,21.02
2023-05-10T11:57:07.298Z,21.01
2023-05-10T11:59:37.531Z,20.96
2023-05-10T12:02:06.025Z,21.21
2023-05-10T12:04:34.553Z,21.08
2023-05-10T12:07:03.227Z,21.12
2023-05-10T12:09:42.767Z,22.04
2023-05-10T12:12:17.894Z,22.11
2023-05-10T12:14:51.300Z,23.04
2023-05-10T12:17:19.131Z,23.09
2023-05-10T12:19:49.177Z,22.96
2023-05-10T12:22:22.250Z,22.81
2023-05-10T12:24:51.783Z,23.20
2023-05-10T12:27:21.645Z,22.94
2023-05-10T12:29:51.602Z,22.32
2023-05-10T12:32:19.556Z,22.53
2023-05-10T12:34:48.531Z,22.69
2023-05-10T12:37:16.460Z,22.49
2023-05-10T12:39:46.942Z,22.02
2023-05-10T12:42:15.394Z,21.59
2023-05-10T12:44:46.178Z,21.49
2023-05-10T12:47:14.506Z,21.62
2023-05-10T12:49:42.394Z,21.42
2023-05-10T12:52:10.850Z,21.11
2023-05-10T12:54:39.892Z,20.96
2023-05-10T12:57:07.765Z,21.41
2023-05-10T12:59:37.442Z,22.24
2023-05-10T13:02:08.513Z,22.02
2023-05-10T13:04:40.349Z,22.16
2023-05-10T13:07:08.541Z,22.09
2023-05-10T13:09:36.691Z,22.33
2023-05-10T13:12:05.888Z,21.76
2023-05-10T13:14:34.202Z,21.39
2023-05-10T13:17:02.315Z,21.18
2023-05-10T13:19:31.493Z,20.80
2023-05-10T13:21:59.779Z,20.34
2023-05-10T13:24:28.078Z,20.31
2023-05-10T13:26:57.145Z,20.98
2023-05-10T13:29:25.300Z,21.52
2023-05-10T13:31:53.340Z,21.86
2023-05-10T13:34:21.487Z,22.17
2023-05-10T13:36:51.649Z,22.18
2023-05-10T13:39:19.560Z,22.52
2023-05-10T13:41:48.393Z,22.59
2023-05-10T13:44:16.725Z,23.37
2023-05-10T13:46:44.730Z,23.21
2023-05-10T13:49:13.155Z,23.27
2023-05-10T13:51:40.981Z,22.51
2023-05-10T13:54:12.047Z,22.16
2023-05-10T13:56:43.469Z,22.05
2023-05-10T13:59:11.701Z,21.68
2023-05-10T14:01:39.705Z,21.45
2023-05-10T14:04:12.017Z,21.32
2023-05-10T14:06:42.174Z,21.15
2023-05-10T14:09:12.397Z,21.13
2023-05-10T14:11:44.103Z,21.54
2023-05-10T14:14:12.439Z,21.57
2023-05-10T14:16:45.026Z,21.92
2023-05-10T14:19:13.302Z,22.19
2023-05-10T14:21:41.210Z,21.98
2023-05-10T14:24:09.090Z,21.58
2023-05-10T14:26:39.248Z,21.97
2023-05-10T14:29:09.327Z,21.60
2023-05-10T14:31:38.774Z,21.65
2023-05-10T14:34:07.015Z,21.61
2023-05-10T14:36:34.920Z,21.45
2023-05-10T14:39:03.802Z,21.54
2023-05-10T14:41:32.167Z,21.76
2023-05-10T14:44:01.520Z,21.95
2023-05-10T14:46:31.050Z,21.85
2023-05-10T14:48:59.109Z,22.08
2023-05-10T14:51:28.426Z,21.39
2023-05-10T14:53:57.416Z,21.28
2023-05-10T14:56:26.652Z,21.01
2023-05-10T14:58:54.710Z,20.96
2023-05-10T15:01:24.933Z,20.87
2023-05-10T15:03:53.236Z,20.80
2023-05-10T15:06:26.244Z,20.70
2023-05-10T15:08:54.155Z,20.54
2023-05-10T15:11:22.801Z,20.53
2023-05-10T15:13:51.126Z,20.51
2023-05-10T15:16:18.968Z,20.57
2023-05-10T15:18:49.342Z,20.97
2023-05-10T15:21:18.409Z,21.11
2023-05-10T15:23:47.713Z,21.66
2023-05-10T15:26:19.275Z,21.71
2023-05-10T15:28:49.730Z,21.86
2023-05-10T15:31:17.612Z,22.21
2023-05-10T15:33:45.478Z,22.14
2023-05-10T15:36:14.657Z,22.13
2023-05-10T15:38:42.607Z,21.93
2023-05-10T15:41:10.806Z,22.00
2023-05-10T15:43:38.672Z,22.29
2023-05-10T15:46:07.262Z,22.45
2023-05-10T15:48:35.245Z,22.44
2023-05-10T15:51:03.571Z,22.45
2023-05-10T15:53:34.473Z,22.05
2023-05-10T15:56:02.388Z,22.08
2023-05-10T15:58:31.546Z,22.43
2023-05-10T16:00:59.480Z,22.49
2023-05-10T16:03:27.519Z,22.11
2023-05-10T16:05:55.384Z,22.02
2023-05-10T16:08:23.483Z,22.44
2023-05-10T16:10:53.386Z,22.39
2023-05-10T16:13:21.569Z,22.46
2023-05-10T16:15:49.729Z,22.32
2023-05-10T16:18:18.184Z,22.32
2023-05-10T16:20:46.822Z,22.15
2023-05-10T16:23:15.251Z,21.95
2023-05-10T16:25:43.326Z,21.87
2023-05-10T16:28:12.494Z,21.89
2023-05-10T16:30:44.944Z,21.65
2023-05-10T16:33:14.502Z,21.71
2023-05-10T16:35:42.387Z,21.58
2023-05-10T16:38:10.183Z,21.40
2023-05-10T16:40:40.120Z,21.47
2023-05-10T16:43:09.351Z,21.42
2023-05-10T16:45:40.997Z,21.60
2023-05-10T16:48:10.256Z,21.68
2023-05-10T16:50:38.593Z,21.82
2023-05-10T16:53:06.778Z,21.95
2023-05-10T16:55:38.508Z,21.87
2023-05-10T16:58:06.874Z,21.85
2023-05-10T17:00:35.254Z,21.65
2023-05-10T17:03:05.019Z,21.71
2023-05-10T17:05:32.869Z,21.85
2023-05-10T17:08:00.915Z,21.59
2023-05-10T17:10:29.175Z,21.60
2023-05-10T17:12:57.186Z,21.64
2023-05-10T17:15:25.335Z,21.48
2023-05-10T17:17:55.206Z,21.30
2023-05-10T17:20:24.509Z,21.25
2023-05-10T17:22:52.640Z,21.17
2023-05-10T17:25:20.615Z,21.22
2023-05-10T17:27:48.581Z,21.19
2023-05-10T17:30:17.288Z,20.97
2023-05-10T17:32:48.762Z,21.09
2023-05-10T17:35:17.071Z,20.73
2023-05-10T17:37:46.730Z,20.61
2023-05-10T17:40:15.003Z,20.57
2023-05-10T17:42:42.988Z,20.61
2023-05-10T17:45:11.961Z,20.55
2023-05-10T17:47:43.418Z,20.59
2023-05-10T17:50:11.476Z,20.40
2023-05-10T17:52:39.541Z,19.93
2023-05-10T17:55:11.900Z,19.69
2023-05-10T17:57:40.609Z,19.62
2023-05-10T18:00:10.118Z,19.52
2023-05-10T18:02:38.789Z,19.52
2023-05-10T18:05:07.917Z,19.54
2023-05-10T18:07:36.178Z,19.50
2023-05-10T18:10:04.835Z,19.56
2023-05-10T18:12:35.196Z,19.49
2023-05-10T18:15:03.338Z,19.30
2023-05-10T18:17:31.172Z,19.30
2023-05-10T18:19:59.171Z,19.24
2023-05-10T18:22:27.259Z,19.08
2023-05-10T18:24:55.642Z,19.20
2023-05-10T18:27:23.569Z,19.25
2023-05-10T18:29:53.164Z,19.08
2023-05-10T18:32:32.514Z,19.03
2023-05-10T18:35:00.600Z,18.99
2023-05-10T18:37:28.421Z,18.98
2023-05-10T18:39:57.679Z,19.00
2023-05-10T18:42:26.901Z,19.04
2023-05-10T18:44:57.536Z,18.92
2023-05-10T18:47:26.785Z,18.90
2023-05-10T18:49:55.371Z,18.87
2023-05-10T18:52:23.293Z,18.82
2023-05-10T18:54:51.936Z,18.83
2023-05-10T18:57:21.173Z,18.97
2023-05-10T18:59:49.435Z,18.95
2023-05-10T19:02:18.863Z,18.96
2023-05-10T19:04:48.570Z,18.94
2023-05-10T19:07:16.575Z,18.83
2023-05-10T19:09:44.455Z,18.83
2023-05-10T19:12:12.211Z,18.79
2023-05-10T19:14:40.592Z,18.84
2023-05-10T19:19:57.663Z,18.67
2023-05-10T19:22:43.561Z,18.50
2023-05-10T19:25:19.654Z,18.53
2023-05-10T19:27:52.667Z,18.54
2023-05-10T19:30:21.182Z,18.63
2023-05-10T19:32:49.286Z,18.61
2023-05-10T19:35:20.175Z,18.67
2023-05-10T19:37:49.318Z,18.50
2023-05-10T19:40:18.493Z,18.42
2023-05-10T19:42:46.645Z,18.30
2023-05-10T19:45:15.954Z,18.22
2023-05-10T19:47:44.219Z,18.32
2023-05-10T19:50:14.000Z,18.29
2023-05-10T19:52:43.906Z,18.22
2023-05-10T19:55:25.291Z,18.26
2023-05-10T19:57:53.506Z,18.08
2023-05-10T20:00:21.721Z,18.05
2023-05-10T20:02:50.271Z,18.07
2023-05-10T20:05:18.406Z,17.91
2023-05-10T20:07:47.892Z,17.87
2023-05-10T20:10:16.668Z,17.77
2023-05-10T20:12:52.459Z,17.74
2023-05-10T20:15:23.129Z,17.71
2023-05-10T20:17:52.905Z,17.69
2023-05-10T20:20:21.837Z,17.78
2023-05-10T20:22:51.837Z,17.84
2023-05-10T20:25:19.828Z,18.00
2023-05-10T20:27:47.693Z,18.03
2023-05-10T20:30:16.218Z,18.08
2023-05-10T20:32:48.119Z,18.13
2023-05-10T20:35:16.147Z,17.93
2023-05-10T20:37:44.041Z,17.92
2023-05-10T20:40:13.860Z,17.86
2023-05-10T20:42:41.978Z,17.98
2023-05-10T20:45:12.016Z,18.02
2023-05-10T20:47:39.930Z,17.92
2023-05-10T20:50:08.798Z,17.85
2023-05-10T20:52:36.703Z,17.67
2023-05-10T20:55:06.161Z,17.63
2023-05-10T20:57:36.432Z,17.36
2023-05-10T21:00:05.611Z,17.16
2023-05-10T21:02:33.615Z,17.03
2023-05-10T21:05:01.963Z,16.95
2023-05-10T21:07:32.376Z,16.99
2023-05-10T21:10:00.291Z,16.95
2023-05-10T21:12:31.959Z,16.82
2023-05-10T21:15:01.540Z,16.76
2023-05-10T21:17:29.392Z,16.70
2023-05-10T21:19:57.212Z,16.79
2023-05-10T21:22:25.398Z,16.70
2023-05-10T21:24:53.706Z,16.65
2023-05-10T21:27:21.954Z,16.45
2023-05-10T21:29:50.015Z,16.51
2023-05-10T21:32:20.243Z,16.43
2023-05-10T21:34:48.072Z,16.49
2023-05-10T21:37:17.437Z,16.55
2023-05-10T21:39:46.616Z,16.59
2023-05-10T21:42:14.532Z,16.60
2023-05-10T21:44:43.228Z,16.62
2023-05-10T21:47:11.132Z,16.56
2023-05-10T21:49:40.445Z,16.61
2023-05-10T21:52:08.661Z,16.65
2023-05-10T21:54:40.787Z,16.65
2023-05-10T21:57:08.657Z,16.68
2023-05-10T21:59:36.769Z,16.69
2023-05-10T22:02:04.803Z,16.69
2023-05-10T22:04:32.726Z,16.68
2023-05-10T22:07:02.366Z,16.70
2023-05-10T22:09:30.386Z,16.70
2023-05-10T22:11:58.324Z,16.67
2023-05-10T22:14:26.174Z,16.65
2023-05-10T22:16:54.017Z,16.62
2023-05-10T22:19:24.538Z,16.64
2023-05-10T22:21:53.192Z,16.65
2023-05-10T22:24:24.632Z,16.56
2023-05-10T22:26:54.142Z,16.58
2023-05-10T22:29:23.822Z,16.61
2023-05-10T22:31:51.683Z,16.62
2023-05-10T22:34:20.015Z,16.55
2023-05-10T22:36:50.723Z,16.51
2023-05-10T22:39:18.533Z,16.53
2023-05-10T22:41:47.867Z,16.53
2023-05-10T22:44:16.137Z,16.53
2023-05-10T22:46:44.000Z,16.54
2023-05-10T22:49:13.244Z,16.44
2023-05-10T22:51:41.108Z,16.33
2023-05-10T22:54:08.866Z,16.24
2023-05-10T22:56:36.775Z,16.32
2023-05-10T22:59:06.045Z,16.36
2023-05-10T23:01:34.117Z,16.32
2023-05-10T23:04:01.932Z,16.31
2023-05-10T23:06:29.812Z,16.26
2023-05-10T23:08:57.609Z,16.26
2023-05-10T23:11:25.527Z,16.22
2023-05-10T23:13:53.235Z,16.22
2023-05-10T23:16:22.538Z,16.18
2023-05-10T23:18:50.501Z,16.10
2023-05-10T23:21:18.449Z,16.17
2023-05-10T23:23:46.290Z,16.22
2023-05-10T23:26:14.325Z,16.24
2023-05-10T23:28:42.367Z,16.17
2023-05-10T23:31:10.548Z,16.12
2023-05-10T23:33:39.930Z,16.17
2023-05-10T23:36:08.777Z,16.12
2023-05-10T23:38:38.343Z,16.08
2023-05-10T23:41:06.195Z,16.03
2023-05-10T23:43:34.030Z,15.93
2023-05-10T23:46:01.947Z,15.84
2023-05-10T23:48:29.989Z,15.95
2023-05-10T23:51:00.221Z,15.79
2023-05-10T23:53:28.434Z,15.71
2023-05-10T23:55:56.530Z,15.74
2023-05-10T23:58:24.423Z,15.72
